Time;durP1;ratioP1;P1;durP2;ratioP2;P2;SDS_P1;SDS_P2;PMS_P1;PMS_P2;Temp;Humidity;BMP_temperature;BMP_pressure;BME280_temperature;BME280_humidity;BME280_pressure;Samples;Min_cycle;Max_cycle;Signal;HPM_P1;HPM_P2
2022/10/20 00:01:40;;;;;;;22.65;6.78;;;11.70;99.90;;;;;;5075207;28;25113;-70
2022/10/20 00:04:05;;;;;;;8.38;6.15;;;11.70;99.90;;;;;;5066353;28;25085;-71
2022/10/20 00:06:32;;;;;;;13.20;6.93;;;11.70;99.90;;;;;;5065220;28;25150;-73
2022/10/20 00:09:00;;;;;;;11.43;6.38;;;11.70;99.90;;;;;;5055962;28;25082;-71
2022/10/20 00:11:27;;;;;;;13.88;7.00;;;11.70;99.90;;;;;;5077134;28;25054;-70
2022/10/20 00:13:54;;;;;;;13.13;7.50;;;11.70;99.90;;;;;;5068877;28;25070;-72
2022/10/20 00:16:21;;;;;;;14.95;6.63;;;11.70;99.90;;;;;;5068592;28;25047;-72
2022/10/20 00:18:47;;;;;;;12.05;6.82;;;11.80;99.90;;;;;;5052141;28;25062;-70
2022/10/20 00:21:15;;;;;;;15.35;6.88;;;11.80;99.90;;;;;;5063935;28;25055;-71
2022/10/20 00:23:41;;;;;;;14.32;7.60;;;11.70;99.90;;;;;;5074384;28;25053;-71
2022/10/20 00:26:11;;;;;;;16.08;7.43;;;11.70;99.90;;;;;;5076168;28;25069;-71
2022/10/20 00:28:37;;;;;;;18.40;6.72;;;11.70;99.90;;;;;;5066862;28;25061;-71
2022/10/20 00:31:03;;;;;;;19.10;7.82;;;11.80;99.90;;;;;;5071111;28;25064;-71
2022/10/20 00:33:29;;;;;;;14.32;6.93;;;11.80;99.90;;;;;;5058018;28;25162;-70
2022/10/20 00:35:58;;;;;;;12.00;6.57;;;11.80;99.90;;;;;;5063610;28;25103;-71
2022/10/20 00:38:24;;;;;;;15.73;8.30;;;11.80;99.90;;;;;;5069168;28;25128;-70
2022/10/20 00:40:50;;;;;;;14.50;7.45;;;11.80;99.90;;;;;;5067327;28;25098;-72
2022/10/20 00:43:16;;;;;;;15.60;8.43;;;11.80;99.90;;;;;;5079257;28;25103;-71
2022/10/20 00:45:48;;;;;;;17.50;8.15;;;11.80;99.90;;;;;;5061695;28;25140;-72
2022/10/20 00:48:17;;;;;;;17.58;7.32;;;11.80;99.90;;;;;;5071387;28;25066;-71
2022/10/20 00:50:48;;;;;;;20.20;8.45;;;11.80;99.90;;;;;;5076561;28;25053;-72
2022/10/20 00:53:16;;;;;;;16.85;8.02;;;11.90;99.90;;;;;;5065358;28;25086;-71
2022/10/20 00:55:46;;;;;;;14.27;7.78;;;11.90;99.90;;;;;;5066810;28;25051;-70
2022/10/20 00:58:13;;;;;;;16.58;9.57;;;11.90;99.90;;;;;;5072217;28;25048;-69
2022/10/20 01:00:40;;;;;;;16.85;7.82;;;11.90;99.90;;;;;;5071090;28;25059;-72
2022/10/20 01:03:11;;;;;;;15.98;8.02;;;11.90;99.90;;;;;;5064775;28;25062;-71
2022/10/20 01:05:38;;;;;;;21.55;7.97;;;11.80;99.90;;;;;;5053673;28;25103;-72
2022/10/20 01:08:03;;;;;;;17.48;8.48;;;11.80;99.90;;;;;;5065759;28;25068;-71
2022/10/20 01:10:39;;;;;;;23.95;9.65;;;11.80;99.90;;;;;;5077203;28;25065;-71
2022/10/20 01:13:28;;;;;;;18.77;7.60;;;11.80;99.90;;;;;;5074878;28;25063;-71
2022/10/20 01:16:41;;;;;;;16.25;8.55;;;11.80;99.90;;;;;;5058093;28;25071;-71
2022/10/20 01:19:40;;;;;;;16.63;7.65;;;11.80;99.90;;;;;;5003155;28;25104;-70
2022/10/20 01:22:32;;;;;;;20.08;8.68;;;11.80;99.90;;;;;;5055542;28;25070;-71
2022/10/20 01:25:04;;;;;;;;;;;11.80;99.90;;;;;;5065558;28;25075;-70
2022/10/20 01:27:36;;;;;;;14.90;7.70;;;11.80;99.90;;;;;;5071478;28;24131;-71
2022/10/20 01:30:16;;;;;;;13.85;7.78;;;11.90;99.90;;;;;;5071584;28;25056;-72
2022/10/20 01:33:01;;;;;;;17.60;8.02;;;11.90;99.90;;;;;;5053834;28;25096;-71
2022/10/20 01:35:36;;;;;;;19.65;8.05;;;11.90;99.90;;;;;;5067118;28;25085;-70
2022/10/20 01:38:31;;;;;;;18.42;8.65;;;11.90;99.90;;;;;;5062098;28;25053;-71
2022/10/20 01:41:04;;;;;;;23.52;8.65;;;11.90;99.90;;;;;;5063605;28;25076;-71
2022/10/20 01:43:34;;;;;;;19.98;8.68;;;12.00;99.90;;;;;;5065990;28;25061;-70
2022/10/20 01:46:02;;;;;;;15.05;7.93;;;11.90;99.90;;;;;;5078816;28;25080;-70
2022/10/20 01:48:31;;;;;;;14.93;8.38;;;12.00;99.90;;;;;;5067427;28;25064;-71
2022/10/20 01:50:59;;;;;;;14.40;8.63;;;12.00;99.90;;;;;;5054689;28;25066;-72
2022/10/20 01:53:24;;;;;;;16.50;9.32;;;12.00;99.90;;;;;;5072100;28;25050;-70
2022/10/20 01:55:55;;;;;;;12.75;8.23;;;12.00;99.90;;;;;;5067378;28;25097;-71
2022/10/20 01:58:33;;;;;;;17.10;8.77;;;12.00;99.90;;;;;;5069704;28;25065;-71
2022/10/20 02:01:09;;;;;;;17.65;9.30;;;12.00;99.90;;;;;;5059911;28;25138;-71
2022/10/20 02:03:56;;;;;;;20.23;8.95;;;12.10;99.90;;;;;;5063506;28;25115;-74
2022/10/20 02:06:49;;;;;;;18.73;9.13;;;12.00;99.90;;;;;;5069303;28;25066;-72
2022/10/20 02:09:22;;;;;;;16.20;8.88;;;12.10;99.90;;;;;;5068444;28;25048;-70
2022/10/20 02:11:57;;;;;;;24.15;8.48;;;12.00;99.90;;;;;;5070694;28;25071;-72
2022/10/20 02:14:23;;;;;;;16.98;9.00;;;12.00;99.90;;;;;;5070426;28;25081;-74
2022/10/20 02:16:58;;;;;;;18.50;9.38;;;12.00;99.90;;;;;;5068872;28;25109;-71
2022/10/20 02:19:27;;;;;;;22.63;9.63;;;12.00;99.90;;;;;;5071769;28;25118;-71
2022/10/20 02:21:55;;;;;;;16.95;8.95;;;12.10;99.90;;;;;;5053867;28;25077;-71
2022/10/20 02:24:25;;;;;;;17.85;8.98;;;12.10;99.90;;;;;;5072428;28;25072;-71
2022/10/20 02:26:53;;;;;;;17.45;9.68;;;12.10;99.90;;;;;;5063131;28;25042;-70
2022/10/20 02:29:24;;;;;;;23.42;9.90;;;12.00;99.90;;;;;;5073472;28;25115;-70
2022/10/20 02:31:50;;;;;;;18.42;9.38;;;12.00;99.90;;;;;;5066003;28;25053;-70
2022/10/20 02:34:16;;;;;;;21.98;10.27;;;12.10;99.90;;;;;;5071815;28;25108;-70
2022/10/20 02:36:43;;;;;;;22.88;10.10;;;12.10;99.90;;;;;;5052222;28;25060;-70
2022/10/20 02:39:09;;;;;;;23.38;9.00;;;12.10;99.90;;;;;;5079671;28;25046;-71
2022/10/20 02:41:35;;;;;;;18.00;8.82;;;12.10;99.90;;;;;;5072423;28;25101;-71
2022/10/20 02:44:01;;;;;;;25.70;11.35;;;12.10;99.90;;;;;;5075680;28;25064;-71
2022/10/20 02:46:26;;;;;;;18.40;9.90;;;12.10;99.90;;;;;;5075097;28;25060;-70
2022/10/20 02:48:52;;;;;;;22.67;9.57;;;12.10;99.90;;;;;;5082982;28;25072;-70
2022/10/20 02:51:18;;;;;;;20.15;10.65;;;12.20;99.90;;;;;;5071548;28;25066;-71
2022/10/20 02:53:44;;;;;;;25.52;10.73;;;12.20;99.90;;;;;;5072206;28;25045;-71
2022/10/20 02:56:10;;;;;;;22.48;10.43;;;12.20;99.90;;;;;;5070266;28;25057;-70
2022/10/20 02:58:35;;;;;;;24.23;10.65;;;12.30;99.90;;;;;;5074662;28;25059;-71
2022/10/20 03:01:02;;;;;;;24.83;11.32;;;12.30;99.90;;;;;;5056619;28;25076;-72
2022/10/20 03:03:28;;;;;;;21.75;10.02;;;12.30;99.90;;;;;;5077335;28;25150;-70
2022/10/20 03:05:53;;;;;;;24.45;11.18;;;12.30;99.90;;;;;;5052252;28;25105;-71
2022/10/20 03:08:19;;;;;;;28.10;11.85;;;12.30;99.90;;;;;;5071235;28;25100;-70
2022/10/20 03:10:44;;;;;;;19.08;10.52;;;12.40;99.90;;;;;;5068742;28;25090;-71
2022/10/20 03:13:10;;;;;;;21.73;10.05;;;12.40;99.90;;;;;;5067528;28;25196;-71
2022/10/20 03:15:36;;;;;;;31.60;11.82;;;12.50;99.90;;;;;;5054424;28;25103;-70
2022/10/20 03:18:02;;;;;;;22.48;10.93;;;12.50;99.90;;;;;;5063518;28;25058;-71
2022/10/20 03:20:28;;;;;;;22.73;10.68;;;12.50;99.90;;;;;;5057766;28;25065;-72
2022/10/20 03:22:54;;;;;;;22.20;10.38;;;12.60;99.90;;;;;;5058676;28;25070;-72
2022/10/20 03:25:20;;;;;;;27.20;11.60;;;12.60;99.90;;;;;;5057991;28;25100;-70
2022/10/20 03:27:45;;;;;;;23.27;10.02;;;12.60;99.90;;;;;;5066877;28;25119;-73
2022/10/20 03:30:11;;;;;;;22.13;10.82;;;12.60;99.90;;;;;;5062854;28;25065;-72
2022/10/20 03:32:36;;;;;;;25.15;11.35;;;12.60;99.90;;;;;;5062809;28;25093;-71
2022/10/20 03:35:02;;;;;;;23.70;11.73;;;12.60;99.90;;;;;;5061328;28;25066;-71
2022/10/20 03:37:28;;;;;;;21.33;10.88;;;12.60;99.90;;;;;;5064387;28;25093;-71
2022/10/20 03:39:53;;;;;;;24.35;11.30;;;12.60;99.90;;;;;;5059545;28;25077;-73
2022/10/20 03:42:19;;;;;;;27.65;12.55;;;12.70;99.90;;;;;;5058750;28;25066;-70
2022/10/20 03:44:44;;;;;;;23.90;11.82;;;12.70;99.90;;;;;;5063159;28;25113;-71
2022/10/20 03:47:11;;;;;;;25.13;13.25;;;12.70;99.90;;;;;;5061303;28;25150;-71
2022/10/20 03:49:37;;;;;;;27.80;12.60;;;12.70;99.90;;;;;;5064674;28;25151;-70
2022/10/20 03:52:04;;;;;;;23.92;11.73;;;12.70;99.90;;;;;;5061551;28;25087;-73
2022/10/20 03:54:29;;;;;;;23.27;11.80;;;12.80;99.90;;;;;;5058566;28;25099;-71
2022/10/20 03:56:55;;;;;;;28.20;12.32;;;12.80;99.90;;;;;;5049814;28;25163;-72
2022/10/20 03:59:21;;;;;;;32.97;13.20;;;12.90;99.90;;;;;;5056809;28;25134;-71
2022/10/20 04:01:46;;;;;;;22.88;12.13;;;12.90;99.90;;;;;;5057955;28;25074;-71
2022/10/20 04:04:13;;;;;;;24.00;12.02;;;12.90;99.90;;;;;;5069378;28;25147;-70
2022/10/20 04:06:38;;;;;;;24.48;11.65;;;12.80;99.90;;;;;;5042182;28;25058;-72
2022/10/20 04:09:04;;;;;;;28.05;12.00;;;12.90;99.90;;;;;;5056339;28;25072;-72
2022/10/20 04:11:31;;;;;;;22.25;11.73;;;12.90;99.90;;;;;;5072270;28;25116;-71
2022/10/20 04:13:56;;;;;;;24.58;12.70;;;12.90;99.90;;;;;;5068051;28;25054;-70
2022/10/20 04:16:23;;;;;;;29.38;12.90;;;12.90;99.90;;;;;;5075534;28;25120;-71
2022/10/20 04:18:50;;;;;;;26.23;12.60;;;12.90;99.90;;;;;;5074183;28;25052;-69
2022/10/20 04:21:16;;;;;;;34.53;12.75;;;12.90;99.90;;;;;;5080179;28;25046;-71
2022/10/20 04:23:41;;;;;;;23.65;11.32;;;13.00;99.90;;;;;;5082683;28;25052;-71
2022/10/20 04:26:11;;;;;;;28.92;12.93;;;13.00;99.90;;;;;;5069067;28;25135;-71
2022/10/20 04:28:37;;;;;;;27.15;12.07;;;13.00;99.90;;;;;;5069469;28;25104;-71
2022/10/20 04:31:03;;;;;;;27.45;13.45;;;13.00;99.90;;;;;;5072738;28;25174;-70
2022/10/20 04:33:28;;;;;;;24.42;11.93;;;13.10;99.90;;;;;;5060614;28;25057;-72
2022/10/20 04:35:59;;;;;;;21.80;12.10;;;13.10;99.90;;;;;;5067300;28;25147;-71
2022/10/20 04:38:25;;;;;;;27.30;13.73;;;13.10;99.90;;;;;;5077129;28;25113;-71
2022/10/20 04:40:58;;;;;;;31.48;12.98;;;13.10;99.90;;;;;;5064210;28;25054;-70
2022/10/20 04:43:24;;;;;;;24.33;12.80;;;13.00;99.90;;;;;;5058967;28;25079;-72
2022/10/20 04:45:49;;;;;;;25.38;12.45;;;13.00;99.90;;;;;;5054440;28;25087;-71
2022/10/20 04:48:16;;;;;;;26.70;12.57;;;13.00;99.90;;;;;;5038535;28;25167;-70
2022/10/20 04:50:41;;;;;;;27.40;12.80;;;13.00;99.90;;;;;;5055337;28;25050;-71
2022/10/20 04:53:08;;;;;;;26.25;12.57;;;13.10;99.90;;;;;;5047113;28;25070;-70
2022/10/20 04:55:34;;;;;;;24.65;11.70;;;13.10;99.90;;;;;;5048193;28;25074;-72
2022/10/20 04:57:59;;;;;;;23.98;12.93;;;13.00;99.90;;;;;;5053234;28;25120;-71
2022/10/20 05:00:25;;;;;;;26.67;12.63;;;13.00;99.90;;;;;;5056110;28;25054;-70
2022/10/20 05:02:50;;;;;;;28.05;12.20;;;13.00;99.90;;;;;;5049404;28;25100;-70
2022/10/20 05:05:16;;;;;;;25.30;11.77;;;13.00;99.90;;;;;;5067958;28;25082;-71
2022/10/20 05:07:41;;;;;;;26.63;12.13;;;13.00;99.90;;;;;;5056958;28;25120;-71
2022/10/20 05:10:07;;;;;;;32.83;13.85;;;13.10;99.90;;;;;;5072939;28;25074;-71
2022/10/20 05:12:33;;;;;;;25.90;13.30;;;13.20;99.90;;;;;;5053284;28;25054;-70
2022/10/20 05:14:58;;;;;;;29.90;12.95;;;13.20;99.90;;;;;;5076870;28;25076;-71
2022/10/20 05:17:24;;;;;;;28.30;13.88;;;13.10;99.90;;;;;;5067504;28;25077;-71
2022/10/20 05:19:50;;;;;;;35.08;14.15;;;13.00;99.90;;;;;;5065868;28;25069;-71
2022/10/20 05:22:15;;;;;;;26.90;13.07;;;13.00;99.90;;;;;;5048156;28;25132;-71
2022/10/20 05:24:41;;;;;;;24.60;12.63;;;13.00;99.90;;;;;;5054763;28;25076;-71
2022/10/20 05:27:07;;;;;;;32.63;13.55;;;13.10;99.90;;;;;;5058392;28;25067;-71
2022/10/20 05:29:32;;;;;;;29.33;13.85;;;13.10;99.90;;;;;;5056963;28;25080;-71
2022/10/20 05:31:58;;;;;;;24.98;13.05;;;13.10;99.90;;;;;;5050774;28;25060;-71
2022/10/20 05:34:23;;;;;;;24.33;13.98;;;13.20;99.90;;;;;;5062596;28;25074;-70
2022/10/20 05:36:52;;;;;;;26.42;13.35;;;13.20;99.90;;;;;;5058908;28;25076;-70
2022/10/20 05:39:17;;;;;;;28.00;13.80;;;13.20;99.90;;;;;;5058192;28;25065;-69
2022/10/20 05:41:43;;;;;;;28.02;14.25;;;13.10;99.90;;;;;;5062967;28;25067;-71
2022/10/20 05:44:11;;;;;;;33.08;13.73;;;13.10;99.90;;;;;;5058010;28;25085;-71
2022/10/20 05:46:40;;;;;;;27.85;14.18;;;13.10;99.90;;;;;;5058271;28;25137;-71
2022/10/20 05:49:06;;;;;;;25.98;12.23;;;13.10;99.90;;;;;;5072365;28;25066;-71
2022/10/20 05:51:35;;;;;;;30.15;13.90;;;13.10;99.90;;;;;;5083039;28;25146;-71
2022/10/20 05:54:01;;;;;;;23.67;12.93;;;13.10;99.90;;;;;;5070077;28;25050;-71
2022/10/20 05:56:28;;;;;;;28.67;13.50;;;13.10;99.90;;;;;;5073435;28;25150;-71
2022/10/20 05:58:55;;;;;;;24.55;12.55;;;13.20;99.90;;;;;;5064479;28;25068;-70
2022/10/20 06:01:24;;;;;;;27.80;13.38;;;13.10;99.90;;;;;;5065010;28;25075;-71
2022/10/20 06:03:54;;;;;;;28.10;13.95;;;13.10;99.90;;;;;;5084448;28;25100;-70
2022/10/20 06:06:26;;;;;;;31.45;13.57;;;13.00;99.90;;;;;;5088787;28;25113;-70
2022/10/20 06:08:52;;;;;;;31.60;13.90;;;13.10;99.90;;;;;;5075789;28;25071;-70
2022/10/20 06:11:19;;;;;;;32.97;13.90;;;13.00;99.90;;;;;;5074263;28;25085;-71
2022/10/20 06:13:45;;;;;;;26.73;12.90;;;13.00;99.90;;;;;;5077074;28;25109;-71
2022/10/20 06:16:22;;;;;;;29.17;14.13;;;13.00;99.90;;;;;;5062139;28;25147;-70
2022/10/20 06:18:48;;;;;;;24.30;12.32;;;12.90;99.90;;;;;;5068861;28;25159;-71
2022/10/20 06:21:19;;;;;;;25.65;12.95;;;13.00;99.90;;;;;;5078922;28;25076;-71
2022/10/20 06:23:45;;;;;;;25.77;12.60;;;13.10;99.90;;;;;;5081105;28;25106;-72
2022/10/20 06:26:13;;;;;;;27.08;12.85;;;13.00;99.90;;;;;;5070974;28;25159;-70
2022/10/20 06:28:40;;;;;;;31.27;15.13;;;13.10;99.90;;;;;;5075924;28;25051;-71
2022/10/20 06:31:11;;;;;;;34.53;13.18;;;13.20;99.90;;;;;;5063631;28;25172;-70
2022/10/20 06:33:36;;;;;;;26.10;13.15;;;13.30;99.90;;;;;;5068334;28;25147;-71
2022/10/20 06:36:02;;;;;;;24.55;12.60;;;13.30;99.90;;;;;;5067696;28;25055;-72
2022/10/20 06:38:28;;;;;;;32.40;13.95;;;13.40;99.90;;;;;;5067193;28;25080;-70
2022/10/20 06:40:54;;;;;;;25.65;13.57;;;13.40;99.90;;;;;;5059157;28;25098;-70
2022/10/20 06:43:20;;;;;;;25.42;12.68;;;13.40;99.90;;;;;;5061712;28;25158;-70
2022/10/20 06:46:13;;;;;;;30.70;13.35;;;13.20;99.90;;;;;;5076637;28;25060;-71
2022/10/20 06:48:39;;;;;;;23.13;11.88;;;13.20;99.90;;;;;;5062038;28;25118;-71
2022/10/20 06:51:07;;;;;;;23.85;12.85;;;13.20;99.90;;;;;;5070261;28;25095;-71
2022/10/20 06:53:34;;;;;;;32.67;13.70;;;13.20;99.90;;;;;;5074756;28;25113;-71
2022/10/20 06:56:09;;;;;;;33.67;13.82;;;13.20;99.90;;;;;;5065980;28;25064;-70
2022/10/20 06:58:36;;;;;;;26.17;13.93;;;13.30;99.90;;;;;;5072754;28;25061;-71
2022/10/20 07:01:04;;;;;;;29.08;14.05;;;13.40;99.90;;;;;;5074004;28;25084;-72
2022/10/20 07:03:31;;;;;;;27.27;13.65;;;13.40;99.90;;;;;;5073119;28;25092;-71
2022/10/20 07:05:57;;;;;;;24.15;12.32;;;13.40;99.90;;;;;;5055681;28;25139;-71
2022/10/20 07:08:23;;;;;;;26.38;13.45;;;13.40;99.90;;;;;;5071737;28;25077;-70
2022/10/20 07:11:03;;;;;;;28.80;13.57;;;13.30;99.90;;;;;;5059941;28;25132;-71
2022/10/20 07:13:29;;;;;;;25.35;12.80;;;13.40;99.90;;;;;;5064642;28;25060;-70
2022/10/20 07:15:56;;;;;;;28.30;13.32;;;13.40;99.90;;;;;;5075761;28;25167;-71
2022/10/20 07:18:23;;;;;;;25.45;12.82;;;13.40;99.90;;;;;;5073100;28;25069;-71
2022/10/20 07:20:49;;;;;;;26.98;13.55;;;13.50;99.90;;;;;;5073225;28;25129;-71
2022/10/20 07:23:14;;;;;;;29.40;13.25;;;13.50;99.90;;;;;;5070838;28;25078;-71
2022/10/20 07:25:40;;;;;;;24.42;12.85;;;13.60;99.90;;;;;;5078193;28;25130;-72
2022/10/20 07:28:06;;;;;;;26.13;13.05;;;13.60;99.90;;;;;;5068814;28;25164;-71
2022/10/20 07:30:36;;;;;;;24.88;12.48;;;13.50;99.90;;;;;;5075710;28;25109;-70
2022/10/20 07:33:01;;;;;;;22.88;12.27;;;13.60;99.90;;;;;;5063021;28;25054;-70
2022/10/20 07:35:29;;;;;;;23.92;12.65;;;13.60;99.90;;;;;;5064170;28;25107;-70
2022/10/20 07:37:54;;;;;;;33.05;13.13;;;13.70;99.90;;;;;;5052775;28;25109;-70
2022/10/20 07:40:20;;;;;;;30.05;13.52;;;13.60;99.90;;;;;;5068153;28;25134;-73
2022/10/20 07:42:46;;;;;;;25.50;12.02;;;13.60;99.90;;;;;;5064986;28;25054;-71
2022/10/20 07:45:11;;;;;;;28.83;13.50;;;13.70;99.90;;;;;;5076452;28;25062;-69
2022/10/20 07:47:37;;;;;;;23.98;13.15;;;13.70;99.90;;;;;;5071777;28;25133;-71
2022/10/20 07:50:02;;;;;;;32.47;13.55;;;13.80;99.90;;;;;;5085287;28;25075;-70
2022/10/20 07:52:30;;;;;;;23.52;11.90;;;13.80;99.90;;;;;;5086151;28;25055;-72
2022/10/20 07:54:56;;;;;;;26.33;13.35;;;13.90;99.90;;;;;;5074802;28;25128;-71
2022/10/20 07:57:21;;;;;;;23.80;12.40;;;13.90;99.90;;;;;;5083237;28;25167;-71
2022/10/20 07:59:47;;;;;;;26.60;12.98;;;13.90;99.90;;;;;;5061959;28;25054;-71
2022/10/20 08:02:14;;;;;;;23.40;12.25;;;13.90;99.90;;;;;;5080068;28;25071;-69
2022/10/20 08:04:42;;;;;;;29.55;12.75;;;14.00;99.90;;;;;;5065401;28;25086;-70
2022/10/20 08:07:11;;;;;;;26.98;13.27;;;14.10;99.90;;;;;;5074345;28;25070;-69
2022/10/20 08:09:37;;;;;;;36.17;13.32;;;14.10;99.90;;;;;;5083515;28;25055;-69
2022/10/20 08:12:03;;;;;;;24.08;12.95;;;14.20;99.90;;;;;;5078657;28;25119;-69
2022/10/20 08:14:33;;;;;;;25.98;14.00;;;14.20;99.90;;;;;;5058730;28;25069;-69
2022/10/20 08:17:00;;;;;;;30.08;13.38;;;14.20;99.90;;;;;;5081326;28;25062;-70
2022/10/20 08:19:26;;;;;;;23.60;12.23;;;14.20;99.90;;;;;;5074409;28;25137;-70
2022/10/20 08:21:51;;;;;;;25.25;12.70;;;14.30;99.90;;;;;;5078042;28;25077;-69
2022/10/20 08:24:17;;;;;;;23.70;12.52;;;14.30;99.90;;;;;;5081050;28;25127;-70
2022/10/20 08:26:43;;;;;;;24.48;13.40;;;14.30;99.90;;;;;;5075317;28;25079;-72
2022/10/20 08:29:09;;;;;;;22.63;11.82;;;14.30;99.90;;;;;;5077760;28;25063;-70
2022/10/20 08:31:35;;;;;;;26.25;11.85;;;14.40;99.90;;;;;;5069829;28;25178;-70
2022/10/20 08:34:00;;;;;;;23.75;11.85;;;14.50;99.90;;;;;;5071418;28;25110;-69
2022/10/20 08:36:29;;;;;;;22.63;13.00;;;14.50;99.90;;;;;;5075287;28;25058;-70
2022/10/20 08:38:57;;;;;;;22.98;12.25;;;14.50;99.90;;;;;;5059550;28;25176;-69
2022/10/20 08:41:27;;;;;;;22.58;12.90;;;14.60;99.90;;;;;;5071409;28;25070;-70
2022/10/20 08:43:54;;;;;;;26.15;12.45;;;14.70;99.90;;;;;;5067069;28;25041;-70
2022/10/20 08:46:28;;;;;;;23.10;12.40;;;14.90;99.90;;;;;;5066300;28;25093;-71
2022/10/20 08:48:54;;;;;;;22.80;11.80;;;14.90;99.90;;;;;;5068024;28;25141;-70
2022/10/20 08:51:23;;;;;;;20.00;11.15;;;14.80;99.90;;;;;;5070515;28;25081;-71
2022/10/20 08:53:51;;;;;;;22.05;10.98;;;14.90;99.90;;;;;;5075108;28;25070;-69
2022/10/20 08:56:21;;;;;;;23.85;11.80;;;15.10;99.90;;;;;;5077272;28;25092;-70
2022/10/20 08:58:47;;;;;;;22.25;10.98;;;15.10;99.90;;;;;;5059602;28;25143;-71
2022/10/20 09:01:21;;;;;;;23.38;11.48;;;15.20;99.90;;;;;;5072977;28;25076;-71
2022/10/20 09:04:01;;;;;;;21.42;12.20;;;15.40;99.90;;;;;;5082089;28;25100;-70
2022/10/20 09:06:27;;;;;;;22.63;11.07;;;15.50;99.90;;;;;;5087916;28;25109;-69
2022/10/20 09:08:54;;;;;;;21.65;10.95;;;15.50;99.90;;;;;;5080940;28;25157;-70
2022/10/20 09:11:24;;;;;;;18.98;10.43;;;15.50;99.90;;;;;;5083168;28;25073;-69
2022/10/20 09:13:52;;;;;;;20.80;10.85;;;15.50;99.90;;;;;;5082264;28;25064;-69
2022/10/20 09:16:28;;;;;;;19.55;11.38;;;15.50;99.90;;;;;;5080345;28;25118;-69
2022/10/20 09:18:59;;;;;;;20.67;10.70;;;15.60;99.90;;;;;;5055685;28;25110;-70
2022/10/20 09:21:25;;;;;;;21.88;11.32;;;15.60;99.90;;;;;;5072585;28;25128;-70
2022/10/20 09:23:55;;;;;;;19.17;10.82;;;15.60;99.90;;;;;;5085492;28;25060;-70
2022/10/20 09:26:30;;;;;;;17.38;11.10;;;15.60;99.90;;;;;;5076244;28;25060;-70
2022/10/20 09:29:05;;;;;;;21.02;10.30;;;15.70;99.90;;;;;;5071402;28;25120;-70
2022/10/20 09:31:36;;;;;;;17.95;9.93;;;15.80;99.90;;;;;;5081652;28;25149;-69
2022/10/20 09:34:20;;;;;;;23.42;11.13;;;15.70;99.90;;;;;;5089033;28;25090;-69
2022/10/20 09:36:47;;;;;;;21.58;10.05;;;15.80;99.90;;;;;;5075515;28;25083;-70
2022/10/20 09:39:26;;;;;;;21.48;11.07;;;15.80;99.90;;;;;;5079331;28;25079;-69
2022/10/20 09:42:04;;;;;;;18.77;10.70;;;15.80;99.90;;;;;;5080862;28;25057;-70
2022/10/20 09:44:37;;;;;;;20.17;10.15;;;15.90;99.90;;;;;;5071333;28;25080;-69
2022/10/20 09:47:02;;;;;;;16.48;9.85;;;15.70;99.90;;;;;;5073315;28;25135;-70
2022/10/20 09:49:34;;;;;;;17.35;9.82;;;15.70;99.90;;;;;;5077901;28;25130;-71
2022/10/20 09:52:03;;;;;;;17.53;10.00;;;15.70;99.90;;;;;;5069528;28;25062;-68
2022/10/20 09:54:29;;;;;;;20.45;10.27;;;15.60;99.90;;;;;;5065944;28;25176;-68
2022/10/20 09:57:06;;;;;;;18.58;10.93;;;15.70;99.90;;;;;;5076716;28;25131;-70
2022/10/20 09:59:43;;;;;;;17.73;9.95;;;15.60;99.90;;;;;;5062994;28;25057;-71
2022/10/20 10:02:14;;;;;;;19.73;10.68;;;15.60;99.90;;;;;;5089962;28;25060;-69
2022/10/20 10:04:43;;;;;;;20.23;11.82;;;15.60;99.90;;;;;;5091560;28;25080;-70
2022/10/20 10:07:21;;;;;;;20.85;11.35;;;15.70;99.90;;;;;;5079216;28;25064;-70
2022/10/20 10:10:00;;;;;;;21.02;11.60;;;15.80;99.90;;;;;;5084031;28;25140;-70
2022/10/20 10:12:27;;;;;;;21.42;11.88;;;16.00;99.90;;;;;;5071139;28;25099;-70
2022/10/20 10:14:54;;;;;;;20.88;11.77;;;16.10;99.90;;;;;;5061976;28;25099;-70
2022/10/20 10:17:41;;;;;;;24.83;12.20;;;16.10;99.90;;;;;;5062682;28;25069;-70
2022/10/20 10:20:30;;;;;;;24.33;12.27;;;16.10;99.90;;;;;;5069162;28;25057;-70
2022/10/20 10:23:16;;;;;;;20.67;12.23;;;16.10;99.90;;;;;;5053140;28;25083;-72
2022/10/20 10:25:42;;;;;;;22.88;12.63;;;16.20;99.90;;;;;;5080859;28;25087;-71
2022/10/20 10:28:32;;;;;;;23.10;13.32;;;16.20;99.90;;;;;;5069634;28;25082;-72
2022/10/20 10:31:08;;;;;;;25.75;12.48;;;16.30;99.90;;;;;;5070092;28;25136;-72
2022/10/20 10:33:33;;;;;;;25.25;12.68;;;16.30;99.90;;;;;;5041975;28;25102;-71
2022/10/20 10:36:06;;;;;;;22.25;12.15;;;16.40;99.90;;;;;;5073107;28;25166;-72
2022/10/20 10:38:37;;;;;;;27.52;12.98;;;16.50;99.90;;;;;;5070121;28;25056;-72
2022/10/20 10:41:34;;;;;;;23.35;12.90;;;16.50;99.90;;;;;;5082032;28;25146;-72
2022/10/20 10:44:06;;;;;;;26.70;12.38;;;16.70;99.90;;;;;;5054915;28;25152;-72
2022/10/20 10:46:39;;;;;;;;;;;16.70;99.90;;;;;;5072957;28;25075;-72
2022/10/20 10:49:13;;;;;;;24.85;12.38;;;16.70;99.90;;;;;;5081967;28;24059;-72
2022/10/20 10:51:41;;;;;;;27.55;13.43;;;16.70;99.90;;;;;;5077991;28;25052;-72
2022/10/20 10:54:25;;;;;;;24.77;12.68;;;16.80;99.90;;;;;;5078014;28;25170;-73
2022/10/20 10:57:03;;;;;;;23.20;13.02;;;16.90;99.90;;;;;;5078570;28;25156;-73
2022/10/20 10:59:34;;;;;;;19.25;11.85;;;16.90;99.90;;;;;;5075044;28;25060;-73
2022/10/20 11:02:18;;;;;;;25.98;13.38;;;17.00;99.90;;;;;;5075837;28;25139;-72
2022/10/20 11:04:43;;;;;;;28.90;14.50;;;16.90;99.90;;;;;;5071900;28;25062;-74
2022/10/20 11:07:21;;;;;;;28.08;13.65;;;17.10;99.90;;;;;;5073249;28;25078;-73
2022/10/20 11:10:03;;;;;;;23.67;12.90;;;17.10;99.90;;;;;;5076130;28;25159;-73
2022/10/20 11:12:34;;;;;;;38.45;13.45;;;17.10;99.90;;;;;;5075491;28;25046;-73
2022/10/20 11:15:34;;;;;;;24.92;12.95;;;17.20;99.90;;;;;;5064937;28;25057;-73
2022/10/20 11:18:00;;;;;;;22.10;12.00;;;17.30;99.90;;;;;;5047779;28;24862;-72
2022/10/20 11:20:52;;;;;;;25.33;12.98;;;17.30;99.90;;;;;;5071896;28;25135;-72
2022/10/20 11:23:37;;;;;;;;;;;17.30;99.90;;;;;;5065342;28;25121;-73
2022/10/20 11:26:05;;;;;;;22.65;13.30;;;17.30;99.90;;;;;;5059485;28;24296;-73
2022/10/20 11:28:46;;;;;;;25.92;13.60;;;17.50;99.90;;;;;;5076467;28;25125;-72
2022/10/20 11:31:30;;;;;;;23.88;13.13;;;17.50;99.90;;;;;;5069851;28;25141;-73
2022/10/20 11:34:26;;;;;;;23.70;12.52;;;17.50;99.90;;;;;;5042662;28;25060;-72
2022/10/20 11:37:23;;;;;;;23.63;13.13;;;17.60;99.90;;;;;;5061778;28;25074;-71
2022/10/20 11:40:25;;;;;;;26.67;13.57;;;17.60;99.90;;;;;;5070645;28;25091;-72
2022/10/20 11:43:00;;;;;;;23.75;12.25;;;17.70;99.90;;;;;;5076377;28;25045;-72
2022/10/20 11:45:48;;;;;;;26.73;12.18;;;17.80;99.90;;;;;;5074708;28;25117;-72
2022/10/20 11:48:21;;;;;;;23.90;12.68;;;17.80;99.90;;;;;;5079381;28;25078;-72
2022/10/20 11:50:58;;;;;;;24.08;13.43;;;17.80;99.90;;;;;;5076372;28;25066;-74
2022/10/20 11:53:47;;;;;;;29.83;13.80;;;17.90;99.90;;;;;;5073181;28;25061;-73
2022/10/20 11:56:33;;;;;;;32.97;14.23;;;18.00;99.90;;;;;;5072254;28;25067;-74
2022/10/20 11:59:18;;;;;;;28.88;13.65;;;18.10;99.90;;;;;;5058537;28;25117;-73
2022/10/20 12:02:17;;;;;;;27.85;14.10;;;18.20;99.90;;;;;;5072930;28;25071;-74
2022/10/20 12:05:21;;;;;;;32.05;14.68;;;18.20;99.90;;;;;;5073197;28;25152;-73
2022/10/20 12:08:03;;;;;;;27.85;13.90;;;18.40;99.90;;;;;;5059955;28;25055;-72
2022/10/20 12:10:36;;;;;;;28.42;13.05;;;18.50;99.90;;;;;;5065185;28;25103;-72
2022/10/20 12:13:28;;;;;;;25.02;12.88;;;18.60;99.90;;;;;;5078783;28;25052;-72
2022/10/20 12:15:54;;;;;;;19.50;11.93;;;18.60;99.90;;;;;;5069810;28;25073;-76
2022/10/20 12:18:29;;;;;;;21.67;12.45;;;18.80;99.90;;;;;;5074836;28;25070;-77
2022/10/20 12:21:00;;;;;;;23.90;12.48;;;18.80;99.90;;;;;;5057971;28;25068;-77
2022/10/20 12:23:52;;;;;;;26.98;13.75;;;18.90;99.90;;;;;;5080385;28;25057;-75
2022/10/20 12:26:35;;;;;;;31.83;12.93;;;18.80;99.90;;;;;;5057498;28;25096;-78
2022/10/20 12:29:21;;;;;;;24.70;14.13;;;18.90;99.90;;;;;;5069909;28;25050;-77
2022/10/20 12:32:24;;;;;;;26.88;12.85;;;18.90;99.90;;;;;;5072672;28;25049;-78
2022/10/20 12:34:57;;;;;;;;;;;19.10;99.90;;;;;;5077944;28;25081;-77
2022/10/20 12:37:23;;;;;;;23.33;12.35;;;19.20;99.90;;;;;;5062764;28;25050;-78
2022/10/20 12:39:49;;;;;;;23.75;13.55;;;19.30;99.90;;;;;;5076975;28;25127;-76
2022/10/20 12:42:37;;;;;;;26.67;13.75;;;19.30;99.90;;;;;;5082838;28;25063;-76
2022/10/20 12:45:22;;;;;;;26.25;13.20;;;19.40;99.90;;;;;;5070117;28;25129;-76
2022/10/20 12:47:57;;;;;;;21.58;12.52;;;19.50;99.90;;;;;;5078830;28;25126;-78
2022/10/20 12:50:29;;;;;;;23.00;12.77;;;19.80;99.90;;;;;;5081747;28;25076;-77